Time;durP1;ratioP1;P1;durP2;ratioP2;P2;SDS_P1;SDS_P2;PMS_P1;PMS_P2;Temp;Humidity;BMP_temperature;BMP_pressure;BME280_temperature;BME280_humidity;BME280_pressure;Samples;Min_cycle;Max_cycle;Signal;HPM_P1;HPM_P2
2024/04/10 00:02:20;;;;;;;8.20;2.80;;;;;;;13.82;44.90;101252.38;107582;1254;101718;-65
2024/04/10 00:04:48;;;;;;;9.80;2.70;;;;;;;13.71;44.74;101252.75;107549;1254;113241;-63
2024/04/10 00:07:16;;;;;;;6.80;3.40;;;;;;;13.64;44.92;101251.59;107553;1254;108515;-65
2024/04/10 00:09:45;;;;;;;5.40;3.10;;;;;;;13.60;45.02;101252.32;107605;1253;108622;-64
2024/04/10 00:12:12;;;;;;;7.60;2.90;;;;;;;13.54;45.07;101251.39;107615;1256;100447;-63
2024/04/10 00:14:41;;;;;;;4.80;2.80;;;;;;;13.51;45.31;101251.34;107566;1254;100395;-64
2024/04/10 00:17:09;;;;;;;11.20;2.80;;;;;;;13.49;45.46;101254.96;107520;1254;113466;-64
2024/04/10 00:19:38;;;;;;;13.00;3.10;;;;;;;13.46;45.50;101249.46;107585;1254;106431;-64
2024/04/10 00:22:06;;;;;;;6.10;3.10;;;;;;;13.42;45.61;101253.28;107560;1256;108190;-64
2024/04/10 00:24:35;;;;;;;7.70;3.60;;;;;;;13.37;45.96;101254.41;107507;1254;100554;-65
2024/04/10 00:27:03;;;;;;;8.30;3.80;;;;;;;13.29;46.15;101254.04;107510;1254;100801;-64
2024/04/10 00:29:32;;;;;;;8.90;3.20;;;;;;;13.21;46.25;101252.81;107528;1253;114044;-65
2024/04/10 00:32:00;;;;;;;7.50;3.50;;;;;;;13.14;46.61;101253.23;107604;1253;108370;-64
2024/04/10 00:34:29;;;;;;;12.20;3.30;;;;;;;13.07;47.11;101255.36;107554;1253;108109;-64
2024/04/10 00:36:57;;;;;;;7.20;3.30;;;;;;;12.98;47.25;101254.69;107570;1253;100533;-65
2024/04/10 00:39:27;;;;;;;10.90;3.80;;;;;;;12.93;47.25;101248.52;107592;1255;100420;-65
2024/04/10 00:41:55;;;;;;;6.90;3.20;;;;;;;12.88;47.36;101251.34;107607;1254;114520;-64
2024/04/10 00:44:23;;;;;;;7.40;3.20;;;;;;;12.83;47.44;101248.82;107535;1254;109973;-65
2024/04/10 00:46:52;;;;;;;8.50;2.90;;;;;;;12.78;48.24;101249.98;107498;1252;108603;-64
2024/04/10 00:49:21;;;;;;;6.80;3.10;;;;;;;12.74;48.20;101250.96;107517;1254;100634;-64
2024/04/10 00:51:50;;;;;;;9.10;3.30;;;;;;;12.73;48.17;101248.75;107574;1254;100425;-64
2024/04/10 00:54:18;;;;;;;7.10;3.90;;;;;;;12.68;48.29;101248.60;107551;1253;114748;-64
2024/04/10 00:56:47;;;;;;;14.20;3.60;;;;;;;12.62;48.25;101250.16;107570;1254;107922;-65
2024/04/10 00:59:15;;;;;;;5.00;3.30;;;;;;;12.56;48.36;101247.11;107551;1252;108105;-65
2024/04/10 01:01:44;;;;;;;8.80;3.20;;;;;;;12.50;48.34;101246.61;107581;1253;100528;-65
2024/04/10 01:04:12;;;;;;;9.40;4.00;;;;;;;12.44;48.42;101241.71;107593;1254;100427;-65
2024/04/10 01:06:40;;;;;;;6.50;3.90;;;;;;;12.41;49.23;101243.65;107602;1250;114805;-64
2024/04/10 01:09:08;;;;;;;10.00;3.50;;;;;;;12.34;49.00;101245.64;107573;1251;107573;-66
2024/04/10 01:11:37;;;;;;;8.60;3.60;;;;;;;12.32;48.92;101246.34;107599;1251;108212;-63
2024/04/10 01:14:06;;;;;;;15.60;3.80;;;;;;;12.32;49.11;101244.09;107505;1254;101314;-65
2024/04/10 01:16:35;;;;;;;9.20;3.30;;;;;;;12.31;48.82;101243.41;107593;1255;100521;-64
2024/04/10 01:19:03;;;;;;;9.60;3.60;;;;;;;12.31;48.90;101241.27;107611;1254;113113;-65
2024/04/10 01:21:32;;;;;;;7.20;3.30;;;;;;;12.29;48.95;101245.73;107590;1254;107755;-64
2024/04/10 01:24:00;;;;;;;10.10;4.10;;;;;;;12.26;49.31;101248.36;107602;1253;106954;-64
2024/04/10 01:26:28;;;;;;;7.00;3.70;;;;;;;12.20;49.29;101255.50;107618;1253;100590;-64
2024/04/10 01:28:58;;;;;;;8.70;4.20;;;;;;;12.16;49.62;101251.59;107557;1252;101083;-64
2024/04/10 01:31:30;;;;;;;6.70;3.90;;;;;;;12.07;49.85;101246.78;107671;1251;114471;-65
2024/04/10 01:33:58;;;;;;;13.70;3.80;;;;;;;12.02;49.86;101247.55;107588;1255;108365;-64
2024/04/10 01:36:27;;;;;;;7.10;3.80;;;;;;;12.00;50.11;101250.61;107625;1251;107656;-65
2024/04/10 01:38:55;;;;;;;8.70;4.30;;;;;;;11.97;50.50;101246.94;107606;1255;100648;-65
2024/04/10 01:41:23;;;;;;;11.30;3.70;;;;;;;11.89;50.49;101248.44;107554;1251;100417;-64
2024/04/10 01:43:51;;;;;;;17.40;4.30;;;;;;;11.86;50.55;101249.46;107545;1254;114639;-65
2024/04/10 01:46:20;;;;;;;10.80;4.30;;;;;;;11.80;50.60;101245.10;107576;1252;107216;-66
2024/04/10 01:48:48;;;;;;;7.70;3.90;;;;;;;11.78;50.58;101248.20;107571;1251;108055;-63
2024/04/10 01:51:18;;;;;;;8.70;4.00;;;;;;;11.76;50.68;101253.91;107571;1251;100627;-63
2024/04/10 01:53:46;;;;;;;5.80;3.40;;;;;;;11.75;50.63;101252.35;107636;1251;100382;-64
2024/04/10 01:56:14;;;;;;;5.50;3.80;;;;;;;11.75;50.57;101247.87;107541;1250;114370;-65
2024/04/10 01:58:42;;;;;;;7.90;3.60;;;;;;;11.75;50.58;101247.70;107624;1254;108356;-64
2024/04/10 02:01:10;;;;;;;12.80;3.40;;;;;;;11.73;50.45;101242.45;107608;1253;108161;-65
2024/04/10 02:03:39;;;;;;;8.90;4.30;;;;;;;11.68;50.59;101237.11;107602;1253;100527;-64
2024/04/10 02:06:07;;;;;;;11.10;4.40;;;;;;;11.62;50.55;101237.35;107584;1251;101048;-64
2024/04/10 02:08:35;;;;;;;11.40;3.90;;;;;;;11.56;50.66;101240.33;107614;1256;114508;-63
2024/04/10 02:14:08;;;;;;;6.70;3.90;;;;;;;11.47;51.42;101236.08;107204;1257;108241;-65
2024/04/10 02:16:36;;;;;;;11.50;4.10;;;;;;;11.42;51.49;101240.22;107485;1251;100541;-65
2024/04/10 02:19:04;;;;;;;11.60;4.10;;;;;;;11.38;51.64;101241.68;107568;1251;100414;-64
2024/04/10 02:21:32;;;;;;;11.90;4.10;;;;;;;11.33;51.72;101242.47;107648;1251;114574;-65
2024/04/10 02:24:01;;;;;;;8.80;5.00;;;;;;;11.28;51.69;101245.73;107571;1255;107869;-64
2024/04/10 02:26:29;;;;;;;9.90;4.60;;;;;;;11.24;52.11;101250.54;107559;1254;108618;-64
2024/04/10 02:28:58;;;;;;;8.20;4.20;;;;;;;11.17;52.47;101251.69;107445;1256;100612;-64
2024/04/10 02:31:26;;;;;;;8.30;3.60;;;;;;;11.04;54.11;101250.73;107631;1253;100514;-66
2024/04/10 02:33:55;;;;;;;9.60;4.20;;;;;;;10.92;54.50;101251.20;107607;1254;115234;-64
2024/04/10 02:36:24;;;;;;;6.90;3.70;;;;;;;10.78;55.61;101251.16;107596;1254;108306;-64
2024/04/10 02:38:52;;;;;;;11.60;4.30;;;;;;;10.65;55.02;101248.49;107616;1251;108252;-64
2024/04/10 02:41:20;;;;;;;7.50;4.20;;;;;;;10.60;55.29;101249.29;107703;1251;100584;-65
2024/04/10 02:43:49;;;;;;;12.60;3.90;;;;;;;10.61;55.30;101245.43;107623;1251;100401;-65
2024/04/10 02:46:17;;;;;;;16.80;4.50;;;;;;;10.60;55.18;101253.95;107594;1251;113534;-64
2024/04/10 02:48:45;;;;;;;9.10;4.20;;;;;;;10.60;55.31;101248.43;107619;1251;108322;-63
2024/04/10 02:51:15;;;;;;;10.50;4.40;;;;;;;10.60;55.10;101254.02;107600;1251;108520;-66
2024/04/10 02:53:43;;;;;;;18.30;4.60;;;;;;;10.60;54.99;101259.18;107528;1254;100552;-65
2024/04/10 02:56:11;;;;;;;9.20;4.00;;;;;;;10.60;54.85;101257.71;107606;1255;100391;-64
2024/04/10 02:58:40;;;;;;;15.50;4.00;;;;;;;10.59;54.88;101257.67;107596;1254;114832;-65
2024/04/10 03:01:11;;;;;;;5.90;3.70;;;;;;;10.53;55.25;101254.02;107575;1254;107842;-65
2024/04/10 03:03:39;;;;;;;20.10;4.50;;;;;;;10.47;55.38;101255.41;107564;1255;108810;-66
2024/04/10 03:06:08;;;;;;;12.50;4.50;;;;;;;10.41;55.42;101255.31;107577;1251;100385;-66
2024/04/10 03:08:37;;;;;;;25.50;4.40;;;;;;;10.35;55.73;101260.09;107595;1256;100539;-66
2024/04/10 03:11:05;;;;;;;11.40;4.30;;;;;;;10.31;55.92;101261.42;107621;1251;114798;-66
2024/04/10 03:13:35;;;;;;;12.10;4.10;;;;;;;10.31;55.99;101262.38;107621;1250;107686;-66
2024/04/10 03:16:06;;;;;;;11.00;4.20;;;;;;;10.32;56.34;101268.04;107587;1251;108197;-65
2024/04/10 03:18:35;;;;;;;13.70;5.10;;;;;;;10.32;56.35;101271.20;107631;1251;100603;-64
2024/04/10 03:21:03;;;;;;;13.60;4.60;;;;;;;10.32;56.36;101269.07;107608;1251;101226;-64
2024/04/10 03:23:32;;;;;;;15.90;4.80;;;;;;;10.30;56.51;101270.83;107536;1254;115159;-65
2024/04/10 03:26:04;;;;;;;11.20;4.90;;;;;;;10.27;56.56;101275.41;107597;1254;108280;-63
2024/04/10 03:28:36;;;;;;;21.70;5.50;;;;;;;10.26;56.53;101274.08;107558;1254;108801;-64
2024/04/10 03:31:06;;;;;;;23.50;5.10;;;;;;;10.24;56.54;101278.52;107581;1255;100450;-65
2024/04/10 03:33:35;;;;;;;17.10;4.60;;;;;;;10.21;56.79;101281.45;107588;1253;100530;-65
2024/04/10 03:36:04;;;;;;;27.60;5.30;;;;;;;10.19;56.90;101284.29;107570;1254;112563;-64
2024/04/10 03:38:33;;;;;;;15.40;5.00;;;;;;;10.17;57.26;101289.27;107588;1251;108773;-64
2024/04/10 03:41:02;;;;;;;22.30;5.30;;;;;;;10.16;57.74;101292.44;107594;1252;107853;-64
2024/04/10 03:43:30;;;;;;;13.20;4.60;;;;;;;10.15;58.37;101296.73;107606;1251;100523;-65
2024/04/10 03:46:00;;;;;;;13.90;4.30;;;;;;;10.20;58.98;101298.72;107587;1255;100408;-65
2024/04/10 03:48:28;;;;;;;13.70;4.30;;;;;;;10.19;59.45;101304.91;107584;1251;114974;-65
2024/04/10 03:50:59;;;;;;;14.60;5.80;;;;;;;10.18;58.87;101306.92;107519;1254;108326;-65
2024/04/10 03:53:27;;;;;;;19.20;4.10;;;;;;;10.21;59.03;101309.77;107622;1256;108828;-66
2024/04/10 03:55:56;;;;;;;10.70;4.30;;;;;;;10.17;59.08;101313.09;107599;1254;100421;-65
2024/04/10 03:58:24;;;;;;;20.20;5.30;;;;;;;10.14;59.21;101317.27;107559;1254;101140;-65
2024/04/10 04:00:53;;;;;;;17.10;5.10;;;;;;;10.17;59.08;101315.13;107564;1256;113115;-65
2024/04/10 04:03:25;;;;;;;14.60;4.60;;;;;;;10.20;59.27;101318.10;107558;1255;108496;-66
2024/04/10 04:05:54;;;;;;;21.40;6.70;;;;;;;10.24;59.16;101322.09;107560;1251;108471;-64
2024/04/10 04:08:22;;;;;;;21.40;5.40;;;;;;;10.27;59.07;101318.59;107622;1251;100552;-63
2024/04/10 04:10:50;;;;;;;20.30;5.50;;;;;;;10.31;59.12;101326.73;107591;1251;100385;-64
2024/04/10 04:13:19;;;;;;;28.50;5.70;;;;;;;10.34;58.92;101324.69;107580;1251;114156;-63
2024/04/10 04:15:48;;;;;;;28.20;5.20;;;;;;;10.39;58.83;101332.61;107550;1251;108301;-64
2024/04/10 04:18:16;;;;;;;14.30;5.20;;;;;;;10.44;59.02;101337.41;107607;1251;106837;-64
2024/04/10 04:20:46;;;;;;;19.70;4.60;;;;;;;10.48;58.97;101336.39;107520;1251;100509;-63
2024/04/10 04:23:14;;;;;;;27.80;5.50;;;;;;;10.53;58.85;101336.66;107589;1251;101324;-65
2024/04/10 04:25:42;;;;;;;20.10;5.70;;;;;;;10.59;58.96;101343.37;107603;1251;114229;-63
2024/04/10 04:28:10;;;;;;;35.10;6.30;;;;;;;10.64;58.45;101352.89;107569;1251;107564;-64
2024/04/10 04:30:46;;;;;;;40.50;6.40;;;;;;;10.68;58.30;101356.67;107528;1251;108615;-64
2024/04/10 04:33:16;;;;;;;30.00;6.20;;;;;;;10.75;58.26;101357.77;107569;1252;100522;-67
2024/04/10 04:35:45;;;;;;;51.20;7.20;;;;;;;10.82;58.15;101356.98;107599;1251;100446;-68
2024/04/10 04:38:15;;;;;;;51.50;7.30;;;;;;;10.89;58.04;101357.48;107609;1254;115004;-67
2024/04/10 04:40:44;;;;;;;31.90;8.40;;;;;;;10.97;57.91;101357.95;107618;1255;107829;-66
2024/04/10 04:43:12;;;;;;;43.70;11.80;;;;;;;11.04;57.71;101356.30;107580;1251;107996;-67
2024/04/10 04:45:41;;;;;;;48.10;9.00;;;;;;;11.12;57.59;101363.59;107574;1251;100531;-67
2024/04/10 04:48:10;;;;;;;37.30;11.20;;;;;;;11.17;57.44;101365.70;107624;1251;100523;-67
2024/04/10 04:50:41;;;;;;;35.40;8.10;;;;;;;11.23;57.48;101370.95;107635;1250;114871;-66
2024/04/10 04:53:11;;;;;;;42.00;8.90;;;;;;;11.27;57.40;101372.19;107586;1251;108129;-65
2024/04/10 04:55:41;;;;;;;30.70;8.30;;;;;;;11.33;57.41;101373.03;107575;1256;107433;-65
2024/04/10 04:58:10;;;;;;;50.40;14.50;;;;;;;11.39;57.31;101375.88;107587;1256;100536;-66
2024/04/10 05:00:40;;;;;;;57.80;10.30;;;;;;;11.46;57.32;101375.92;107482;1254;101218;-65
2024/04/10 05:04:53;;;;;;;46.20;8.00;;;;;;;11.51;57.07;101376.90;107522;1254;113261;-64
2024/04/10 05:06:04;;;;;;;32.40;9.00;;;;;;;11.57;57.37;101380.34;107633;1254;108547;-66
2024/04/10 05:08:33;;;;;;;23.10;8.10;;;;;;;11.66;57.49;101378.34;107609;1254;107679;-65
2024/04/10 05:11:08;;;;;;;25.60;7.70;;;;;;;11.72;57.39;101384.09;107614;1254;100517;-65
2024/04/10 05:13:36;;;;;;;19.20;7.70;;;;;;;11.79;57.19;101390.41;107613;1254;100602;-64
2024/04/10 05:16:06;;;;;;;17.90;8.70;;;;;;;11.83;57.31;101383.56;107607;1254;115093;-64
2024/04/10 05:18:34;;;;;;;20.50;8.10;;;;;;;11.87;57.04;101382.34;107416;1254;108559;-64
2024/04/10 05:21:03;;;;;;;31.20;9.10;;;;;;;11.92;57.15;101383.91;107593;1254;108396;-64
2024/04/10 05:23:31;;;;;;;23.90;9.70;;;;;;;11.99;57.34;101384.59;107586;1254;100513;-65
2024/04/10 05:26:02;;;;;;;28.60;8.50;;;;;;;12.08;57.13;101387.86;107589;1254;100641;-65
2024/04/10 05:28:31;;;;;;;32.70;8.60;;;;;;;12.14;57.09;101382.66;107631;1257;113752;-63
2024/04/10 05:31:08;;;;;;;21.80;7.10;;;;;;;12.22;57.06;101383.96;107637;1256;108803;-63
2024/04/10 05:33:36;;;;;;;29.20;6.50;;;;;;;12.27;56.87;101386.06;107542;1255;106940;-64
2024/04/10 05:36:05;;;;;;;17.80;6.20;;;;;;;12.33;56.66;101388.92;107567;1255;100530;-66
2024/04/10 05:38:33;;;;;;;28.60;6.80;;;;;;;12.40;56.64;101393.77;107608;1254;101060;-62
2024/04/10 05:41:03;;;;;;;17.70;6.20;;;;;;;12.46;56.66;101391.77;107599;1254;114509;-63
2024/04/10 05:43:31;;;;;;;31.00;7.20;;;;;;;12.52;56.80;101394.48;107581;1254;108147;-63
2024/04/10 05:45:59;;;;;;;21.60;6.70;;;;;;;12.62;56.79;101406.02;107583;1256;108133;-64
2024/04/10 05:48:28;;;;;;;17.50;6.10;;;;;;;12.71;56.74;101402.54;107568;1254;100528;-62
2024/04/10 05:50:58;;;;;;;24.00;6.80;;;;;;;12.83;56.65;101407.07;107501;1253;101028;-63
2024/04/10 05:53:27;;;;;;;32.00;6.90;;;;;;;12.91;56.42;101410.01;107630;1254;113979;-64
2024/04/10 05:55:55;;;;;;;33.20;8.30;;;;;;;12.98;56.22;101412.05;107553;1251;107522;-63
2024/04/10 05:58:24;;;;;;;24.00;10.20;;;;;;;13.07;56.23;101417.79;107500;1251;108408;-63
2024/04/10 06:00:52;;;;;;;21.10;7.40;;;;;;;13.15;56.32;101417.77;107533;1251;100644;-65
2024/04/10 06:03:22;;;;;;;21.30;7.00;;;;;;;13.24;56.30;101417.70;107585;1256;100420;-64
2024/04/10 06:05:51;;;;;;;14.30;6.10;;;;;;;13.31;56.10;101424.45;107528;1251;114875;-63
2024/04/10 06:08:19;;;;;;;25.30;5.70;;;;;;;13.40;56.28;101425.27;107549;1252;107756;-64
2024/04/10 06:10:51;;;;;;;26.30;5.50;;;;;;;13.49;55.99;101421.30;107514;1256;107104;-63
2024/04/10 06:13:19;;;;;;;22.80;5.20;;;;;;;13.58;56.04;101418.82;107552;1256;100628;-63
2024/04/10 06:16:06;;;;;;;13.40;5.00;;;;;;;13.67;55.74;101424.52;107548;1257;100503;-63
2024/04/10 06:18:34;;;;;;;10.80;4.50;;;;;;;13.76;55.53;101433.58;107667;1256;114454;-63
2024/04/10 06:21:04;;;;;;;28.20;5.30;;;;;;;13.86;55.50;101433.56;107631;1254;108456;-63
2024/04/10 06:23:33;;;;;;;14.80;5.50;;;;;;;13.98;55.21;101430.50;107659;1253;108487;-63
2024/04/10 06:26:02;;;;;;;19.40;6.70;;;;;;;14.06;54.91;101431.70;107581;1254;100408;-63
2024/04/10 06:28:31;;;;;;;17.00;5.80;;;;;;;14.15;54.89;101434.52;107547;1251;101015;-61
2024/04/10 06:31:04;;;;;;;17.30;6.00;;;;;;;14.24;54.61;101433.33;107531;1251;113725;-64
2024/04/10 06:33:32;;;;;;;27.00;5.40;;;;;;;14.31;54.58;101431.56;107622;1251;108733;-62
2024/04/10 06:36:04;;;;;;;21.70;6.50;;;;;;;14.39;54.55;101433.72;107513;1255;107669;-63
2024/04/10 06:38:34;;;;;;;20.40;6.70;;;;;;;14.47;54.57;101430.82;107506;1251;100622;-64
2024/04/10 06:41:03;;;;;;;25.20;6.00;;;;;;;14.55;54.50;101431.31;107623;1251;100395;-63
2024/04/10 06:43:33;;;;;;;18.00;5.90;;;;;;;14.64;54.58;101430.73;107545;1250;112756;-63
2024/04/10 06:46:03;;;;;;;16.10;5.10;;;;;;;14.74;54.58;101438.07;107600;1251;107024;-64
2024/04/10 06:48:31;;;;;;;17.50;6.00;;;;;;;14.84;54.33;101438.20;107533;1251;107372;-63
2024/04/10 06:51:05;;;;;;;13.00;5.40;;;;;;;14.95;54.29;101439.88;107551;1252;100544;-64
2024/04/10 06:53:33;;;;;;;26.00;6.50;;;;;;;15.07;54.06;101440.87;107548;1256;100520;-62
2024/04/10 06:56:04;;;;;;;16.60;5.20;;;;;;;15.18;54.02;101440.30;107600;1255;114748;-63
2024/04/10 06:58:38;;;;;;;13.70;5.50;;;;;;;15.31;53.79;101439.06;107584;1255;107561;-63
2024/04/10 07:01:08;;;;;;;30.10;5.30;;;;;;;15.45;53.93;101438.65;107561;1254;108177;-63
2024/04/10 07:03:39;;;;;;;17.00;6.00;;;;;;;15.59;53.81;101432.37;107607;1255;100623;-63
2024/04/10 07:06:11;;;;;;;17.20;5.20;;;;;;;15.72;53.59;101432.13;107609;1254;100443;-64
2024/04/10 07:08:47;;;;;;;14.60;6.10;;;;;;;15.86;53.36;101431.84;107609;1254;114127;-63
2024/04/10 07:11:21;;;;;;;19.30;5.80;;;;;;;16.01;53.07;101436.19;107484;1254;107014;-63
2024/04/10 07:13:52;;;;;;;13.40;5.40;;;;;;;16.14;52.66;101438.83;107426;1257;108622;-64
2024/04/10 07:16:30;;;;;;;15.00;4.60;;;;;;;16.28;52.48;101433.96;107540;1257;100542;-63
2024/04/10 07:18:59;;;;;;;15.70;4.70;;;;;;;16.42;52.12;101432.39;107544;1256;101151;-63
2024/04/10 07:21:28;;;;;;;15.60;4.40;;;;;;;16.54;51.59;101435.06;107509;1257;114496;-64
2024/04/10 07:24:01;;;;;;;9.20;4.00;;;;;;;16.68;51.22;101435.08;107510;1254;107748;-64
2024/04/10 07:26:29;;;;;;;16.30;4.50;;;;;;;16.84;50.60;101437.82;107523;1256;108337;-62
2024/04/10 07:28:58;;;;;;;15.70;4.30;;;;;;;16.99;50.57;101441.67;107509;1255;100538;-62
2024/04/10 07:31:31;;;;;;;13.70;4.80;;;;;;;17.13;50.64;101440.98;107595;1254;100459;-63
2024/04/10 07:34:01;;;;;;;12.00;4.00;;;;;;;17.25;50.33;101434.94;107608;1256;113669;-63
2024/04/10 07:36:33;;;;;;;11.60;3.40;;;;;;;17.40;50.04;101436.13;107645;1257;106885;-63
2024/04/10 07:39:07;;;;;;;9.20;2.70;;;;;;;17.53;48.52;101432.56;107509;1257;108882;-63
2024/04/10 07:41:37;;;;;;;7.00;3.20;;;;;;;17.67;48.42;101433.20;107432;1257;100645;-62
2024/04/10 07:44:07;;;;;;;9.90;3.20;;;;;;;17.83;47.47;101438.74;107525;1254;100533;-63
2024/04/10 07:46:36;;;;;;;20.20;3.70;;;;;;;17.98;46.91;101440.55;107549;1254;114907;-63
2024/04/10 07:49:09;;;;;;;9.50;3.30;;;;;;;18.14;46.23;101437.73;107415;1254;108321;-64
2024/04/10 07:51:38;;;;;;;6.90;3.00;;;;;;;18.33;46.23;101438.59;107351;1254;108763;-63
2024/04/10 07:54:06;;;;;;;11.30;2.00;;;;;;;18.49;45.28;101434.46;107438;1254;101292;-64
2024/04/10 07:56:34;;;;;;;12.60;2.70;;;;;;;18.65;38.62;101432.31;107590;1251;100414;-63
2024/04/10 07:59:03;;;;;;;9.60;2.00;;;;;;;18.85;35.70;101432.62;107374;1254;240401;-64
2024/04/10 08:01:31;;;;;;;15.40;1.90;;;;;;;19.07;35.49;101431.33;107602;1251;106958;-63
2024/04/10 08:04:02;;;;;;;11.00;1.90;;;;;;;19.27;34.51;101431.86;107595;1251;108919;-63
2024/04/10 08:06:36;;;;;;;15.90;2.00;;;;;;;19.48;33.32;101435.95;107545;1254;100472;-64
2024/04/10 08:09:04;;;;;;;12.00;1.40;;;;;;;19.65;33.08;101433.19;107466;1254;101058;-64
2024/04/10 08:11:33;;;;;;;15.60;2.00;;;;;;;19.82;31.92;101435.86;107625;1254;114432;-63
2024/04/10 08:14:02;;;;;;;5.90;1.70;;;;;;;19.97;31.65;101431.54;107599;1256;107808;-63
2024/04/10 08:16:32;;;;;;;10.70;1.80;;;;;;;20.10;31.22;101435.98;107644;1254;106694;-63
2024/04/10 08:19:02;;;;;;;9.10;2.10;;;;;;;20.23;30.78;101439.45;107581;1254;100638;-63
2024/04/10 08:21:35;;;;;;;13.30;2.40;;;;;;;20.36;30.37;101438.92;107561;1254;100522;-63
2024/04/10 08:24:03;;;;;;;8.70;1.90;;;;;;;20.52;30.09;101432.28;107615;1254;113642;-63
2024/04/10 08:26:33;;;;;;;11.10;1.80;;;;;;;20.70;29.11;101432.52;107611;1254;107301;-64
2024/04/10 08:29:03;;;;;;;10.30;1.90;;;;;;;20.86;29.20;101429.66;107607;1253;108644;-63
2024/04/10 08:31:31;;;;;;;6.20;2.20;;;;;;;21.01;28.91;101428.95;107438;1254;100436;-64
2024/04/10 08:34:00;;;;;;;6.00;2.30;;;;;;;21.14;28.58;101435.69;107644;1254;100417;-63
2024/04/10 08:36:29;;;;;;;7.70;1.70;;;;;;;21.26;28.44;101430.45;107621;1251;113332;-62
2024/04/10 08:38:57;;;;;;;15.60;2.20;;;;;;;21.40;28.48;101434.00;107611;1254;107839;-64
2024/04/10 08:41:26;;;;;;;7.00;1.90;;;;;;;21.52;28.71;101432.48;107535;1251;107471;-64
2024/04/10 08:43:55;;;;;;;5.90;1.40;;;;;;;21.68;28.65;101432.95;107522;1251;100607;-64
2024/04/10 08:46:27;;;;;;;12.40;2.00;;;;;;;21.83;27.95;101436.55;107570;1251;100420;-64
2024/04/10 08:48:58;;;;;;;7.50;1.80;;;;;;;21.98;27.93;101434.50;107445;1250;114964;-63
2024/04/10 08:51:27;;;;;;;10.00;2.10;;;;;;;22.13;28.21;101425.97;107571;1254;107878;-63
2024/04/10 08:53:56;;;;;;;16.30;1.70;;;;;;;22.27;28.45;101428.95;107578;1253;108682;-63
2024/04/10 08:56:24;;;;;;;11.70;1.80;;;;;;;22.45;28.19;101427.59;107622;1254;100535;-64
2024/04/10 08:58:55;;;;;;;12.90;2.60;;;;;;;22.60;27.58;101424.13;107599;1254;100418;-64
2024/04/10 09:01:26;;;;;;;8.90;1.80;;;;;;;22.75;27.74;101420.34;107609;1256;113645;-64
2024/04/10 09:03:55;;;;;;;20.20;2.00;;;;;;;22.92;27.62;101425.55;107459;1254;106770;-63
2024/04/10 09:06:23;;;;;;;8.50;2.10;;;;;;;23.12;27.49;101426.29;107611;1253;109680;-65
2024/04/10 09:08:59;;;;;;;12.80;1.80;;;;;;;23.35;27.46;101424.60;107599;1255;100520;-64
2024/04/10 09:11:27;;;;;;;6.40;1.70;;;;;;;23.57;27.05;101426.36;107610;1254;100439;-64
2024/04/10 09:14:00;;;;;;;5.10;1.80;;;;;;;23.76;26.68;101424.92;107628;1254;113618;-64
2024/04/10 09:16:29;;;;;;;10.70;2.10;;;;;;;23.96;26.74;101428.27;107667;1254;107712;-63
2024/04/10 09:19:10;;;;;;;7.40;1.80;;;;;;;24.22;27.08;101425.38;107599;1255;108811;-63
2024/04/10 09:22:02;;;;;;;11.60;2.20;;;;;;;24.59;26.82;101427.60;107446;1254;100511;-63
2024/04/10 09:24:30;;;;;;;9.00;1.80;;;;;;;25.02;25.97;101424.77;107679;1254;100424;-63
2024/04/10 09:26:59;;;;;;;16.00;1.50;;;;;;;25.41;25.69;101427.80;107626;1254;113972;-63
2024/04/10 09:29:31;;;;;;;13.40;2.40;;;;;;;25.87;25.31;101418.90;107576;1254;108033;-62
2024/04/10 09:32:11;;;;;;;5.90;1.90;;;;;;;26.51;24.90;101421.88;107617;1257;105957;-63
2024/04/10 09:34:41;;;;;;;10.00;2.00;;;;;;;27.28;24.60;101419.52;107604;1254;100533;-63
2024/04/10 09:37:12;;;;;;;7.90;1.40;;;;;;;28.02;24.50;101418.69;107616;1254;101045;-63
2024/04/10 09:39:41;;;;;;;2.60;1.60;;;;;;;28.74;22.59;101417.62;107664;1254;114062;-64
2024/04/10 09:42:25;;;;;;;10.50;2.10;;;;;;;29.25;22.79;101414.48;107613;1254;109062;-64
2024/04/10 09:45:05;;;;;;;12.20;2.10;;;;;;;29.92;22.62;101412.55;107592;1255;107792;-63
2024/04/10 09:47:36;;;;;;;8.10;1.70;;;;;;;30.56;21.95;101407.70;107599;1254;101902;-62
2024/04/10 09:50:12;;;;;;;13.60;2.10;;;;;;;31.05;20.96;101408.94;107640;1254;100526;-64
2024/04/10 09:52:42;;;;;;;16.10;1.70;;;;;;;31.46;20.97;101407.23;107653;1256;113993;-62
2024/04/10 09:55:12;;;;;;;5.40;2.00;;;;;;;31.93;20.27;101410.02;107624;1254;106815;-63
2024/04/10 09:57:45;;;;;;;4.60;1.70;;;;;;;32.34;20.01;101413.02;107424;1253;108328;-63
2024/04/10 10:00:13;;;;;;;9.00;1.80;;;;;;;32.76;19.20;101408.44;107587;1254;100590;-64
2024/04/10 10:02:41;;;;;;;5.00;1.70;;;;;;;33.09;18.83;101413.33;107595;1256;100532;-64
2024/04/10 10:05:20;;;;;;;6.30;1.30;;;;;;;33.32;18.88;101408.57;107622;1254;115486;-64
2024/04/10 10:07:50;;;;;;;3.40;1.40;;;;;;;33.64;17.53;101411.50;107631;1254;108045;-64
2024/04/10 10:10:18;;;;;;;4.60;2.00;;;;;;;33.74;17.58;101406.64;107598;1254;107328;-63
2024/04/10 10:12:48;;;;;;;8.40;1.50;;;;;;;33.87;17.83;101403.72;107625;1253;100709;-63
2024/04/10 10:15:22;;;;;;;6.20;1.60;;;;;;;34.16;16.72;101415.06;107640;1253;101054;-64
2024/04/10 10:17:53;;;;;;;11.60;2.20;;;;;;;34.21;16.82;101405.95;107632;1254;114138;-64
2024/04/10 10:20:32;;;;;;;8.50;1.70;;;;;;;34.26;16.80;101403.60;107648;1254;108654;-64
2024/04/10 10:23:02;;;;;;;6.00;1.60;;;;;;;34.44;16.10;101413.48;107666;1256;107749;-62
2024/04/10 10:25:31;;;;;;;10.30;1.60;;;;;;;34.40;15.77;101407.89;107626;1254;100429;-63
2024/04/10 10:28:07;;;;;;;9.90;1.80;;;;;;;34.40;16.08;101405.33;107622;1253;101063;-63
2024/04/10 10:30:36;;;;;;;5.40;1.50;;;;;;;34.64;15.45;101405.89;107658;1254;114705;-63
2024/04/10 10:33:06;;;;;;;4.10;1.60;;;;;;;34.69;15.46;101403.24;107603;1254;107288;-64
2024/04/10 10:35:35;;;;;;;10.80;1.50;;;;;;;34.72;15.94;101397.31;107603;1254;107686;-64
2024/04/10 10:38:04;;;;;;;5.60;1.70;;;;;;;35.13;15.49;101400.11;107675;1254;100560;-64
2024/04/10 10:40:35;;;;;;;4.70;1.30;;;;;;;35.32;14.91;101396.44;107603;1254;101227;-64
2024/04/10 10:43:05;;;;;;;10.30;2.00;;;;;;;35.46;15.40;101389.15;107611;1252;113700;-64
2024/04/10 10:45:35;;;;;;;12.50;1.90;;;;;;;35.78;15.10;101392.17;107652;1253;108784;-64
2024/04/10 10:48:04;;;;;;;14.50;1.90;;;;;;;36.03;15.04;101391.02;107634;1254;107070;-66
2024/04/10 10:50:33;;;;;;;9.50;1.60;;;;;;;36.31;14.83;101392.71;107650;1256;100436;-64
2024/04/10 10:53:02;;;;;;;7.50;1.60;;;;;;;36.43;14.63;101394.64;107687;1252;100530;-63
2024/04/10 10:55:30;;;;;;;6.80;1.80;;;;;;;36.58;14.58;101396.31;107675;1254;114619;-64
2024/04/10 10:58:06;;;;;;;5.30;2.00;;;;;;;36.79;13.97;101398.13;107590;1256;108632;-64
2024/04/10 11:00:34;;;;;;;4.60;1.40;;;;;;;36.92;14.11;101395.19;107629;1254;107374;-64
2024/04/10 11:03:08;;;;;;;6.10;1.40;;;;;;;37.11;14.33;101388.77;107639;1253;100660;-65
2024/04/10 11:05:51;;;;;;;3.00;1.20;;;;;;;37.55;14.03;101392.14;107621;1254;101047;-65
2024/04/10 11:08:23;;;;;;;5.20;1.00;;;;;;;37.73;13.30;101389.48;107560;1254;114571;-65
2024/04/10 11:10:53;;;;;;;;;;;;;;;37.72;13.28;101387.77;107615;1254;107717;-65
2024/04/10 11:13:21;;;;;;;;;;;;;;;37.65;13.87;101379.75;107633;1254;107812;-65
2024/04/10 11:15:49;;;;;;;;;;;;;;;37.81;13.71;101377.36;107599;1254;100616;-63
2024/04/10 11:18:19;;;;;;;;;;;;;;;37.71;13.10;101380.33;107622;1254;100635;-64
2024/04/10 11:20:49;;;;;;;;;;;;;;;37.68;13.22;101373.02;107660;1251;114601;-64
2024/04/10 11:23:18;;;;;;;;;;;;;;;37.74;13.50;101372.42;107576;1254;107969;-64